createdAt,value
2024-04-12T00:02:22.743Z,13.40
2024-04-12T00:06:27.422Z,13.30
2024-04-12T00:10:30.804Z,13.30
2024-04-12T00:14:34.397Z,13.30
2024-04-12T00:18:38.551Z,13.30
2024-04-12T00:22:41.083Z,13.40
2024-04-12T00:27:51.123Z,13.30
2024-04-12T00:31:57.141Z,13.20
2024-04-12T00:36:10.956Z,13.20
2024-04-12T00:40:13.249Z,13.20
2024-04-12T00:44:18.162Z,13.30
2024-04-12T00:48:22.742Z,13.30
2024-04-12T00:52:29.756Z,13.40
2024-04-12T00:56:32.097Z,13.40
2024-04-12T01:00:38.009Z,13.50
2024-04-12T01:04:40.805Z,13.40
2024-04-12T01:08:47.549Z,13.50
2024-04-12T01:12:56.305Z,13.50
2024-04-12T01:16:58.874Z,13.40
2024-04-12T01:21:07.525Z,13.60
2024-04-12T01:25:11.047Z,13.50
2024-04-12T01:29:14.658Z,13.50
2024-04-12T01:33:17.066Z,13.60
2024-04-12T01:37:22.254Z,13.60
2024-04-12T01:41:33.944Z,13.60
2024-04-12T01:45:40.549Z,13.60
2024-04-12T01:49:44.946Z,13.60
2024-04-12T01:53:47.567Z,13.60
2024-04-12T01:57:52.678Z,13.60
2024-04-12T02:01:56.122Z,13.60
2024-04-12T02:05:59.100Z,13.60
2024-04-12T02:10:09.100Z,13.70
2024-04-12T02:14:12.527Z,13.70
2024-04-12T02:18:35.235Z,13.60
2024-04-12T02:22:39.236Z,13.70
2024-04-12T02:26:43.784Z,13.70
2024-04-12T02:30:55.203Z,13.70
2024-04-12T02:34:58.132Z,13.70
2024-04-12T02:39:06.152Z,13.70
2024-04-12T02:43:08.548Z,13.70
2024-04-12T02:47:14.764Z,13.70
2024-04-12T02:51:23.671Z,13.60
2024-04-12T02:55:32.228Z,13.40
2024-04-12T02:59:35.731Z,13.40
2024-04-12T03:03:57.246Z,13.30
2024-04-12T03:08:02.081Z,13.40
2024-04-12T03:12:04.623Z,13.30
2024-04-12T03:16:14.821Z,13.30
2024-04-12T03:20:17.900Z,13.30
2024-04-12T03:24:20.458Z,13.20
2024-04-12T03:28:22.888Z,13.20
2024-04-12T03:32:33.492Z,13.20
2024-04-12T03:36:37.679Z,13.10
2024-04-12T03:40:40.021Z,13.10
2024-04-12T03:44:44.447Z,13.20
2024-04-12T03:48:46.812Z,13.20
2024-04-12T03:52:49.693Z,13.20
2024-04-12T03:56:58.080Z,13.20
2024-04-12T04:01:00.602Z,13.30
2024-04-12T04:05:15.330Z,13.30
2024-04-12T04:09:21.444Z,13.30
2024-04-12T04:13:28.599Z,13.40
2024-04-12T04:17:32.299Z,13.40
2024-04-12T04:21:39.345Z,13.50
2024-04-12T04:25:45.659Z,13.60
2024-04-12T04:29:47.992Z,13.50
2024-04-12T04:33:50.663Z,13.60
2024-04-12T04:37:53.739Z,13.60
2024-04-12T04:41:56.256Z,13.60
2024-04-12T04:46:00.670Z,13.60
2024-04-12T04:50:02.961Z,13.70
2024-04-12T04:54:07.018Z,13.70
2024-04-12T04:58:10.250Z,13.70
2024-04-12T05:02:12.908Z,13.70
2024-04-12T05:06:15.352Z,13.60
2024-04-12T05:10:17.696Z,13.60
2024-04-12T05:14:36.573Z,13.70
2024-04-12T05:18:39.605Z,13.70
2024-04-12T05:22:43.237Z,13.70
2024-04-12T05:26:46.650Z,13.80
2024-04-12T05:30:54.563Z,13.80
2024-04-12T05:34:59.458Z,13.80
2024-04-12T05:39:09.901Z,13.80
2024-04-12T05:43:16.625Z,13.90
2024-04-12T05:47:19.157Z,13.90
2024-04-12T05:51:43.888Z,13.90
2024-04-12T05:55:46.625Z,13.90
2024-04-12T05:59:51.706Z,14.00
2024-04-12T06:03:56.647Z,13.90
2024-04-12T06:07:59.768Z,14.00
2024-04-12T06:12:07.047Z,14.00
2024-04-12T06:16:09.850Z,14.00
2024-04-12T06:20:12.749Z,14.10
2024-04-12T06:24:17.406Z,14.10
2024-04-12T06:28:21.109Z,14.10
2024-04-12T06:32:25.419Z,14.10
2024-04-12T06:36:32.158Z,14.20
2024-04-12T06:40:34.488Z,14.20
2024-04-12T06:44:37.034Z,14.20
2024-04-12T06:48:42.140Z,14.30
2024-04-12T06:52:45.796Z,14.30
2024-04-12T06:56:49.843Z,14.40
2024-04-12T07:00:59.218Z,14.50
2024-04-12T07:05:02.250Z,14.50
2024-04-12T07:09:10.162Z,14.60
2024-04-12T07:13:13.008Z,14.50
2024-04-12T07:17:29.498Z,14.60
2024-04-12T07:21:37.227Z,14.60
2024-04-12T07:25:40.567Z,14.60
2024-04-12T07:29:45.825Z,14.60
2024-04-12T07:33:49.445Z,14.70
2024-04-12T07:37:58.359Z,14.60
2024-04-12T07:42:10.181Z,14.60
2024-04-12T07:46:18.821Z,14.70
2024-04-12T07:50:33.161Z,14.80
2024-04-12T07:54:35.679Z,14.90
2024-04-12T07:58:39.037Z,14.90
2024-04-12T08:02:41.388Z,14.90
2024-04-12T08:06:50.027Z,15.00
2024-04-12T08:11:01.278Z,15.10
2024-04-12T08:15:08.781Z,15.20
2024-04-12T08:19:16.483Z,15.20
2024-04-12T08:23:19.331Z,15.20
2024-04-12T08:27:25.864Z,15.20
2024-04-12T08:31:31.138Z,15.30
2024-04-12T08:35:40.356Z,15.20
2024-04-12T08:39:48.898Z,15.40
2024-04-12T08:43:55.528Z,15.40
2024-04-12T08:48:04.668Z,15.70
2024-04-12T08:52:26.459Z,15.80
2024-04-12T08:56:30.743Z,16.00
2024-04-12T09:00:36.341Z,16.10
2024-04-12T09:04:41.622Z,16.30
2024-04-12T09:08:46.043Z,16.10
2024-04-12T09:12:48.975Z,16.10
2024-04-12T09:16:54.493Z,16.00
2024-04-12T09:21:04.203Z,16.00
2024-04-12T09:25:17.657Z,16.30
2024-04-12T09:29:28.070Z,16.30
2024-04-12T09:33:33.052Z,16.20
2024-04-12T09:37:46.095Z,16.30
2024-04-12T09:41:55.486Z,16.10
2024-04-12T09:46:09.567Z,16.40
2024-04-12T09:50:30.854Z,16.60
2024-04-12T09:54:51.719Z,16.70
2024-04-12T09:59:17.619Z,16.60
2024-04-12T10:03:40.217Z,16.60
2024-04-12T10:08:02.622Z,16.60
2024-04-12T10:12:26.365Z,16.60
2024-04-12T10:16:47.595Z,16.70
2024-04-12T10:21:08.426Z,16.70
2024-04-12T10:25:32.399Z,17.00
2024-04-12T10:29:53.762Z,16.70
2024-04-12T10:34:15.151Z,16.80
2024-04-12T10:38:27.520Z,17.00
2024-04-12T10:42:39.560Z,17.10
2024-04-12T10:46:42.795Z,17.40
2024-04-12T10:50:47.437Z,17.10
2024-04-12T10:54:49.754Z,17.20
2024-04-12T10:58:57.682Z,17.00
2024-04-12T11:03:08.616Z,17.20
2024-04-12T11:07:15.597Z,17.10
2024-04-12T11:11:20.891Z,17.20
2024-04-12T11:15:23.471Z,17.20
2024-04-12T11:19:44.693Z,17.30
2024-04-12T11:24:07.481Z,17.30
2024-04-12T11:28:28.530Z,17.40
2024-04-12T11:32:36.021Z,17.50
2024-04-12T11:36:42.057Z,17.50
2024-04-12T11:40:46.864Z,17.30
2024-04-12T11:44:49.837Z,17.30
2024-04-12T11:48:55.419Z,17.30
2024-04-12T11:52:58.163Z,17.30
2024-04-12T11:57:01.809Z,17.10
2024-04-12T12:01:07.549Z,17.20
2024-04-12T12:05:10.749Z,17.30
2024-04-12T12:09:15.165Z,17.30
2024-04-12T12:13:18.257Z,17.40
2024-04-12T12:17:21.186Z,17.50
2024-04-12T12:21:24.468Z,17.40
2024-04-12T12:25:27.971Z,17.50
2024-04-12T12:29:30.412Z,17.40
2024-04-12T12:33:39.517Z,17.40
2024-04-12T12:37:42.134Z,17.30
2024-04-12T12:41:46.966Z,17.20
2024-04-12T12:45:49.370Z,17.40
2024-04-12T12:49:56.769Z,17.40
2024-04-12T12:54:01.419Z,17.50
2024-04-12T12:58:13.161Z,17.50
2024-04-12T13:02:16.919Z,17.60
2024-04-12T13:06:22.891Z,17.70
2024-04-12T13:10:25.536Z,18.00
2024-04-12T13:14:27.845Z,18.40
2024-04-12T13:18:30.556Z,18.90
2024-04-12T13:22:33.602Z,19.20
2024-04-12T13:26:37.471Z,19.10
2024-04-12T13:30:43.360Z,19.00
2024-04-12T13:34:47.396Z,18.90
2024-04-12T13:38:50.246Z,19.00
2024-04-12T13:42:52.559Z,18.80
2024-04-12T13:47:13.952Z,18.80
2024-04-12T13:51:20.220Z,18.90
2024-04-12T13:55:24.264Z,18.90
2024-04-12T13:59:31.698Z,19.00
2024-04-12T14:03:36.278Z,19.10
2024-04-12T14:07:50.906Z,19.10
2024-04-12T14:11:53.618Z,19.00
2024-04-12T14:15:55.792Z,18.90
2024-04-12T14:20:01.131Z,19.10
2024-04-12T14:24:12.139Z,19.40
2024-04-12T14:28:15.905Z,19.50
2024-04-12T14:32:18.320Z,19.30
2024-04-12T14:36:20.965Z,19.60
2024-04-12T14:40:24.374Z,19.70
2024-04-12T14:44:28.819Z,19.70
2024-04-12T14:48:31.287Z,19.50
2024-04-12T14:52:34.185Z,19.60
2024-04-12T14:56:40.230Z,19.70
2024-04-12T15:00:49.366Z,19.80
2024-04-12T15:05:10.560Z,19.80
2024-04-12T15:09:31.471Z,19.90
2024-04-12T15:13:52.725Z,20.00
2024-04-12T15:18:14.075Z,19.90
2024-04-12T15:22:35.267Z,20.10
2024-04-12T15:26:56.479Z,20.20
2024-04-12T15:31:17.564Z,20.00
2024-04-12T15:35:39.097Z,19.90
2024-04-12T15:40:00.420Z,20.00
2024-04-12T15:44:21.996Z,20.10
2024-04-12T15:48:27.776Z,19.90
2024-04-12T15:52:30.731Z,19.90
2024-04-12T15:56:33.102Z,19.90
2024-04-12T16:00:54.240Z,19.70
2024-04-12T16:05:15.326Z,19.80
2024-04-12T16:09:36.128Z,20.00
2024-04-12T16:13:38.379Z,20.20
2024-04-12T16:17:40.803Z,20.20
2024-04-12T16:21:43.072Z,20.10
2024-04-12T16:25:57.521Z,20.10
2024-04-12T16:30:05.792Z,20.10
2024-04-12T16:34:09.608Z,20.00
2024-04-12T16:38:12.798Z,19.80
2024-04-12T16:42:15.314Z,19.90
2024-04-12T16:46:17.485Z,20.10
2024-04-12T16:50:23.004Z,20.40
2024-04-12T16:54:25.733Z,20.30
2024-04-12T16:58:28.130Z,20.20
2024-04-12T17:02:30.524Z,19.90
2024-04-12T17:06:32.979Z,19.80
2024-04-12T17:10:35.374Z,19.80
2024-04-12T17:14:37.782Z,19.80
2024-04-12T17:18:40.420Z,19.50
2024-04-12T17:22:42.870Z,19.50
2024-04-12T17:26:45.594Z,19.40
2024-04-12T17:30:48.028Z,19.30
2024-04-12T17:34:51.403Z,19.30
2024-04-12T17:38:53.870Z,19.20
2024-04-12T17:42:56.296Z,19.10
2024-04-12T17:47:00.143Z,19.10
2024-04-12T17:51:04.641Z,19.10
2024-04-12T17:55:07.395Z,19.00
2024-04-12T17:59:09.495Z,19.00
2024-04-12T18:03:11.898Z,18.90
2024-04-12T18:07:14.280Z,18.70
2024-04-12T18:11:16.665Z,18.60
2024-04-12T18:15:19.702Z,18.40
2024-04-12T18:19:22.080Z,18.30
2024-04-12T18:23:24.860Z,18.20
2024-04-12T18:27:27.539Z,18.20
2024-04-12T18:31:30.440Z,18.10
2024-04-12T18:35:33.950Z,17.90
2024-04-12T18:39:55.130Z,17.90
2024-04-12T18:44:16.303Z,17.90
2024-04-12T18:48:21.390Z,17.70
2024-04-12T18:52:25.058Z,17.70
2024-04-12T18:56:27.678Z,17.70
2024-04-12T19:00:30.010Z,17.60
2024-04-12T19:04:32.404Z,17.50
2024-04-12T19:08:34.762Z,17.30
2024-04-12T19:12:37.552Z,17.30
2024-04-12T19:16:42.157Z,17.20
2024-04-12T19:20:44.450Z,17.10
2024-04-12T19:24:47.007Z,17.10
2024-04-12T19:28:50.945Z,17.10
2024-04-12T19:32:53.642Z,17.00
2024-04-12T19:36:56.346Z,16.90
2024-04-12T19:41:00.032Z,16.90
2024-04-12T19:45:02.895Z,16.80
2024-04-12T19:49:07.212Z,16.70
2024-04-12T19:53:12.284Z,16.70
2024-04-12T19:57:14.926Z,16.60
2024-04-12T20:01:17.109Z,16.60
2024-04-12T20:05:19.466Z,16.50
2024-04-12T20:09:22.746Z,16.50
2024-04-12T20:13:25.905Z,16.40
2024-04-12T20:17:28.366Z,16.40
2024-04-12T20:21:30.706Z,16.30
2024-04-12T20:25:33.493Z,16.30
2024-04-12T20:29:35.673Z,16.20
2024-04-12T20:34:10.566Z,16.20
2024-04-12T20:38:12.838Z,16.20
2024-04-12T20:42:17.623Z,16.20
2024-04-12T20:46:20.344Z,16.20
2024-04-12T20:50:22.585Z,16.10
2024-04-12T20:54:24.980Z,16.10
2024-04-12T20:58:27.522Z,16.00
2024-04-12T21:02:30.158Z,15.90
2024-04-12T21:06:34.009Z,15.80
2024-04-12T21:10:36.379Z,15.90
2024-04-12T21:14:41.097Z,15.80
2024-04-12T21:18:43.513Z,15.70
2024-04-12T21:22:46.046Z,15.70
2024-04-12T21:26:48.383Z,15.60
2024-04-12T21:30:50.878Z,15.70
2024-04-12T21:34:53.590Z,15.60
2024-04-12T21:38:59.908Z,15.60
2024-04-12T21:43:02.387Z,15.60
2024-04-12T21:47:04.883Z,15.60
2024-04-12T21:51:08.976Z,15.60
2024-04-12T21:55:11.227Z,15.50
2024-04-12T21:59:13.741Z,15.40
2024-04-12T22:03:19.352Z,15.40
2024-04-12T22:07:21.785Z,15.40
2024-04-12T22:11:24.979Z,15.20
2024-04-12T22:15:27.492Z,15.20
2024-04-12T22:19:30.950Z,15.30
2024-04-12T22:23:37.000Z,15.20
2024-04-12T22:27:39.375Z,15.20
2024-04-12T22:31:44.773Z,15.20
2024-04-12T22:35:50.918Z,15.20
2024-04-12T22:39:56.238Z,15.20
2024-04-12T22:43:59.332Z,15.20
2024-04-12T22:48:03.413Z,15.10
2024-04-12T22:52:06.228Z,15.10
2024-04-12T22:56:08.379Z,15.10
2024-04-12T23:00:13.709Z,15.00
2024-04-12T23:04:16.093Z,15.00
2024-04-12T23:08:18.448Z,14.90
2024-04-12T23:12:21.004Z,14.90
2024-04-12T23:16:23.367Z,14.90
2024-04-12T23:20:25.683Z,14.80
2024-04-12T23:24:28.056Z,14.90
2024-04-12T23:28:30.528Z,14.80
2024-04-12T23:32:32.744Z,14.70
2024-04-12T23:36:35.631Z,14.70
2024-04-12T23:40:38.136Z,14.70
2024-04-12T23:44:40.802Z,14.70
2024-04-12T23:48:43.237Z,14.60
2024-04-12T23:52:45.543Z,14.60
2024-04-12T23:56:47.775Z,14.70
